sensor_id;sensor_type;location;lat;lon;timestamp;P1;durP1;ratioP1;P2;durP2;ratioP2
65658;SDS011;60181;53.258;6.932;2023-04-25T00:02:15;23.20;;;3.90;;
65658;SDS011;60181;53.258;6.932;2023-04-25T00:06:19;23.20;;;3.90;;
65658;SDS011;60181;53.258;6.932;2023-04-25T00:10:23;24.10;;;3.80;;
65658;SDS011;60181;53.258;6.932;2023-04-25T00:14:27;24.10;;;3.80;;
65658;SDS011;60181;53.258;6.932;2023-04-25T00:18:31;23.20;;;4.30;;
65658;SDS011;60181;53.258;6.932;2023-04-25T00:22:35;23.20;;;4.30;;
65658;SDS011;60181;53.258;6.932;2023-04-25T00:26:39;23.20;;;4.30;;
65658;SDS011;60181;53.258;6.932;2023-04-25T00:30:43;19.30;;;3.40;;
65658;SDS011;60181;53.258;6.932;2023-04-25T00:34:47;19.30;;;3.40;;
65658;SDS011;60181;53.258;6.932;2023-04-25T00:38:52;20.40;;;3.80;;
65658;SDS011;60181;53.258;6.932;2023-04-25T00:42:55;20.40;;;3.80;;
65658;SDS011;60181;53.258;6.932;2023-04-25T00:46:59;20.40;;;3.80;;
65658;SDS011;60181;53.258;6.932;2023-04-25T00:51:03;19.50;;;3.50;;
65658;SDS011;60181;53.258;6.932;2023-04-25T00:55:07;19.50;;;3.50;;
65658;SDS011;60181;53.258;6.932;2023-04-25T00:59:11;23.00;;;3.40;;
65658;SDS011;60181;53.258;6.932;2023-04-25T01:03:16;23.00;;;3.40;;
65658;SDS011;60181;53.258;6.932;2023-04-25T01:07:19;15.60;;;3.10;;
65658;SDS011;60181;53.258;6.932;2023-04-25T01:11:23;15.60;;;3.10;;
65658;SDS011;60181;53.258;6.932;2023-04-25T01:15:27;15.60;;;3.10;;
65658;SDS011;60181;53.258;6.932;2023-04-25T01:19:31;19.70;;;3.20;;
65658;SDS011;60181;53.258;6.932;2023-04-25T01:23:35;19.70;;;3.20;;
65658;SDS011;60181;53.258;6.932;2023-04-25T01:27:39;17.70;;;3.10;;
65658;SDS011;60181;53.258;6.932;2023-04-25T01:31:43;17.70;;;3.10;;
65658;SDS011;60181;53.258;6.932;2023-04-25T01:35:47;17.70;;;3.10;;
65658;SDS011;60181;53.258;6.932;2023-04-25T01:39:51;22.30;;;3.30;;
65658;SDS011;60181;53.258;6.932;2023-04-25T01:43:55;22.30;;;3.30;;
65658;SDS011;60181;53.258;6.932;2023-04-25T01:47:59;21.70;;;3.20;;
65658;SDS011;60181;53.258;6.932;2023-04-25T01:52:03;21.70;;;3.20;;
65658;SDS011;60181;53.258;6.932;2023-04-25T01:56:07;21.70;;;3.20;;
65658;SDS011;60181;53.258;6.932;2023-04-25T02:00:11;22.90;;;3.10;;
65658;SDS011;60181;53.258;6.932;2023-04-25T02:04:15;22.90;;;3.10;;
65658;SDS011;60181;53.258;6.932;2023-04-25T02:08:19;15.90;;;3.00;;
65658;SDS011;60181;53.258;6.932;2023-04-25T02:12:23;15.90;;;3.00;;
65658;SDS011;60181;53.258;6.932;2023-04-25T02:16:27;15.90;;;3.00;;
65658;SDS011;60181;53.258;6.932;2023-04-25T02:20:31;24.40;;;2.90;;
65658;SDS011;60181;53.258;6.932;2023-04-25T02:24:35;24.40;;;2.90;;
65658;SDS011;60181;53.258;6.932;2023-04-25T02:28:39;18.40;;;2.80;;
65658;SDS011;60181;53.258;6.932;2023-04-25T02:32:43;18.40;;;2.80;;
65658;SDS011;60181;53.258;6.932;2023-04-25T02:36:48;18.40;;;2.80;;
65658;SDS011;60181;53.258;6.932;2023-04-25T02:40:51;15.50;;;2.60;;
65658;SDS011;60181;53.258;6.932;2023-04-25T02:44:55;15.50;;;2.60;;
65658;SDS011;60181;53.258;6.932;2023-04-25T02:48:59;17.90;;;2.90;;
65658;SDS011;60181;53.258;6.932;2023-04-25T02:53:03;17.90;;;2.90;;
65658;SDS011;60181;53.258;6.932;2023-04-25T02:57:07;10.50;;;2.40;;
65658;SDS011;60181;53.258;6.932;2023-04-25T03:01:11;10.50;;;2.40;;
65658;SDS011;60181;53.258;6.932;2023-04-25T03:05:15;10.50;;;2.40;;
65658;SDS011;60181;53.258;6.932;2023-04-25T03:09:19;11.00;;;2.60;;
65658;SDS011;60181;53.258;6.932;2023-04-25T03:13:23;11.00;;;2.60;;
65658;SDS011;60181;53.258;6.932;2023-04-25T03:17:27;11.00;;;2.20;;
65658;SDS011;60181;53.258;6.932;2023-04-25T03:21:31;11.00;;;2.20;;
65658;SDS011;60181;53.258;6.932;2023-04-25T03:25:35;11.00;;;2.20;;
65658;SDS011;60181;53.258;6.932;2023-04-25T03:29:39;11.60;;;2.00;;
65658;SDS011;60181;53.258;6.932;2023-04-25T03:33:43;11.60;;;2.00;;
65658;SDS011;60181;53.258;6.932;2023-04-25T03:41:51;10.90;;;1.90;;
65658;SDS011;60181;53.258;6.932;2023-04-25T03:45:55;10.90;;;1.90;;
65658;SDS011;60181;53.258;6.932;2023-04-25T03:49:59;19.90;;;2.30;;
65658;SDS011;60181;53.258;6.932;2023-04-25T03:54:03;19.90;;;2.30;;
65658;SDS011;60181;53.258;6.932;2023-04-25T03:58:07;9.90;;;1.80;;
65658;SDS011;60181;53.258;6.932;2023-04-25T04:02:11;9.90;;;1.80;;
65658;SDS011;60181;53.258;6.932;2023-04-25T04:06:15;9.90;;;1.80;;
65658;SDS011;60181;53.258;6.932;2023-04-25T04:10:19;12.80;;;2.00;;
65658;SDS011;60181;53.258;6.932;2023-04-25T04:14:23;12.80;;;2.00;;
65658;SDS011;60181;53.258;6.932;2023-04-25T04:18:27;12.10;;;2.30;;
65658;SDS011;60181;53.258;6.932;2023-04-25T04:22:31;12.10;;;2.30;;
65658;SDS011;60181;53.258;6.932;2023-04-25T04:26:34;12.10;;;2.30;;
65658;SDS011;60181;53.258;6.932;2023-04-25T04:30:39;8.60;;;2.00;;
65658;SDS011;60181;53.258;6.932;2023-04-25T04:34:42;8.60;;;2.00;;
65658;SDS011;60181;53.258;6.932;2023-04-25T04:38:47;9.40;;;2.10;;
65658;SDS011;60181;53.258;6.932;2023-04-25T04:42:50;9.40;;;2.10;;
65658;SDS011;60181;53.258;6.932;2023-04-25T04:46:54;9.40;;;2.10;;
65658;SDS011;60181;53.258;6.932;2023-04-25T04:50:58;10.10;;;1.90;;
65658;SDS011;60181;53.258;6.932;2023-04-25T04:55:03;10.10;;;1.90;;
65658;SDS011;60181;53.258;6.932;2023-04-25T04:59:07;11.60;;;1.70;;
65658;SDS011;60181;53.258;6.932;2023-04-25T05:03:10;11.60;;;1.70;;
65658;SDS011;60181;53.258;6.932;2023-04-25T05:07:14;17.00;;;2.10;;
65658;SDS011;60181;53.258;6.932;2023-04-25T05:11:19;17.00;;;2.10;;
65658;SDS011;60181;53.258;6.932;2023-04-25T05:15:22;17.00;;;2.10;;
65658;SDS011;60181;53.258;6.932;2023-04-25T05:19:26;24.30;;;2.20;;
65658;SDS011;60181;53.258;6.932;2023-04-25T05:23:32;24.30;;;2.20;;
65658;SDS011;60181;53.258;6.932;2023-04-25T05:27:34;10.80;;;1.70;;
65658;SDS011;60181;53.258;6.932;2023-04-25T05:31:38;10.80;;;1.70;;
65658;SDS011;60181;53.258;6.932;2023-04-25T05:35:42;10.80;;;1.70;;
65658;SDS011;60181;53.258;6.932;2023-04-25T05:39:46;12.80;;;1.60;;
65658;SDS011;60181;53.258;6.932;2023-04-25T05:43:50;12.80;;;1.60;;
65658;SDS011;60181;53.258;6.932;2023-04-25T05:47:54;11.40;;;1.70;;
65658;SDS011;60181;53.258;6.932;2023-04-25T05:51:58;11.40;;;1.70;;
65658;SDS011;60181;53.258;6.932;2023-04-25T05:56:03;11.40;;;1.70;;
65658;SDS011;60181;53.258;6.932;2023-04-25T06:00:07;10.90;;;1.90;;
65658;SDS011;60181;53.258;6.932;2023-04-25T06:04:10;10.90;;;1.90;;
65658;SDS011;60181;53.258;6.932;2023-04-25T06:08:15;9.00;;;1.70;;
65658;SDS011;60181;53.258;6.932;2023-04-25T06:12:18;9.00;;;1.70;;
65658;SDS011;60181;53.258;6.932;2023-04-25T06:16:23;9.00;;;1.70;;
65658;SDS011;60181;53.258;6.932;2023-04-25T06:20:26;13.90;;;1.90;;
65658;SDS011;60181;53.258;6.932;2023-04-25T06:24:30;13.90;;;1.90;;
65658;SDS011;60181;53.258;6.932;2023-04-25T06:28:34;7.40;;;1.50;;
65658;SDS011;60181;53.258;6.932;2023-04-25T06:32:38;7.40;;;1.50;;
65658;SDS011;60181;53.258;6.932;2023-04-25T06:36:42;7.40;;;1.50;;
65658;SDS011;60181;53.258;6.932;2023-04-25T06:40:46;7.60;;;1.60;;
65658;SDS011;60181;53.258;6.932;2023-04-25T06:44:50;7.60;;;1.60;;
65658;SDS011;60181;53.258;6.932;2023-04-25T06:48:54;9.20;;;1.70;;
65658;SDS011;60181;53.258;6.932;2023-04-25T06:52:58;9.20;;;1.70;;
65658;SDS011;60181;53.258;6.932;2023-04-25T06:57:02;7.90;;;1.90;;
65658;SDS011;60181;53.258;6.932;2023-04-25T07:01:06;7.90;;;1.90;;
65658;SDS011;60181;53.258;6.932;2023-04-25T07:05:10;7.90;;;1.90;;
65658;SDS011;60181;53.258;6.932;2023-04-25T07:09:14;6.10;;;1.90;;
65658;SDS011;60181;53.258;6.932;2023-04-25T07:13:18;6.10;;;1.90;;
65658;SDS011;60181;53.258;6.932;2023-04-25T08:06:10;7.20;;;2.30;;
65658;SDS011;60181;53.258;6.932;2023-04-25T08:10:14;6.40;;;2.20;;
65658;SDS011;60181;53.258;6.932;2023-04-25T08:14:18;6.40;;;2.20;;
65658;SDS011;60181;53.258;6.932;2023-04-25T08:18:22;7.10;;;2.30;;
65658;SDS011;60181;53.258;6.932;2023-04-25T08:22:28;7.10;;;2.30;;
65658;SDS011;60181;53.258;6.932;2023-04-25T08:26:30;7.10;;;2.30;;
65658;SDS011;60181;53.258;6.932;2023-04-25T08:30:34;9.20;;;2.90;;
65658;SDS011;60181;53.258;6.932;2023-04-25T08:34:38;9.20;;;2.90;;
65658;SDS011;60181;53.258;6.932;2023-04-25T08:38:42;8.80;;;2.70;;
65658;SDS011;60181;53.258;6.932;2023-04-25T08:42:46;8.80;;;2.70;;
65658;SDS011;60181;53.258;6.932;2023-04-25T08:46:50;8.80;;;2.70;;
65658;SDS011;60181;53.258;6.932;2023-04-25T08:50:55;7.30;;;2.60;;
65658;SDS011;60181;53.258;6.932;2023-04-25T08:54:58;7.30;;;2.60;;
65658;SDS011;60181;53.258;6.932;2023-04-25T10:00:02;6.90;;;2.70;;
65658;SDS011;60181;53.258;6.932;2023-04-25T10:04:06;6.90;;;2.70;;
65658;SDS011;60181;53.258;6.932;2023-04-25T10:08:10;9.00;;;2.80;;
65658;SDS011;60181;53.258;6.932;2023-04-25T10:12:14;9.00;;;2.80;;
65658;SDS011;60181;53.258;6.932;2023-04-25T10:16:18;9.00;;;2.80;;
65658;SDS011;60181;53.258;6.932;2023-04-25T10:20:22;7.80;;;3.10;;
65658;SDS011;60181;53.258;6.932;2023-04-25T10:24:26;7.80;;;3.10;;
65658;SDS011;60181;53.258;6.932;2023-04-25T10:28:30;7.80;;;3.00;;
65658;SDS011;60181;53.258;6.932;2023-04-25T10:32:34;7.80;;;3.00;;
65658;SDS011;60181;53.258;6.932;2023-04-25T10:36:38;7.80;;;3.00;;
65658;SDS011;60181;53.258;6.932;2023-04-25T10:40:42;6.80;;;2.90;;
65658;SDS011;60181;53.258;6.932;2023-04-25T10:45:00;6.80;;;2.90;;
65658;SDS011;60181;53.258;6.932;2023-04-25T10:48:51;8.40;;;3.20;;
65658;SDS011;60181;53.258;6.932;2023-04-25T10:52:54;8.40;;;3.20;;
65658;SDS011;60181;53.258;6.932;2023-04-25T10:56:59;8.40;;;3.20;;
65658;SDS011;60181;53.258;6.932;2023-04-25T11:01:02;8.30;;;2.90;;
65658;SDS011;60181;53.258;6.932;2023-04-25T11:05:06;8.30;;;2.90;;
65658;SDS011;60181;53.258;6.932;2023-04-25T11:09:10;7.90;;;3.20;;
65658;SDS011;60181;53.258;6.932;2023-04-25T11:13:14;7.90;;;3.20;;
65658;SDS011;60181;53.258;6.932;2023-04-25T11:17:18;10.10;;;4.00;;
65658;SDS011;60181;53.258;6.932;2023-04-25T11:21:22;10.10;;;4.00;;
65658;SDS011;60181;53.258;6.932;2023-04-25T11:25:26;10.10;;;4.00;;
65658;SDS011;60181;53.258;6.932;2023-04-25T11:29:30;14.60;;;5.90;;
65658;SDS011;60181;53.258;6.932;2023-04-25T11:33:34;14.60;;;5.90;;
65658;SDS011;60181;53.258;6.932;2023-04-25T11:37:39;22.50;;;7.40;;
65658;SDS011;60181;53.258;6.932;2023-04-25T11:41:42;22.50;;;7.40;;
65658;SDS011;60181;53.258;6.932;2023-04-25T11:45:47;22.50;;;7.40;;
65658;SDS011;60181;53.258;6.932;2023-04-25T11:49:52;30.90;;;8.90;;
65658;SDS011;60181;53.258;6.932;2023-04-25T11:53:54;30.90;;;8.90;;
65658;SDS011;60181;53.258;6.932;2023-04-25T11:57:59;29.20;;;10.60;;
65658;SDS011;60181;53.258;6.932;2023-04-25T12:02:02;29.20;;;10.60;;
65658;SDS011;60181;53.258;6.932;2023-04-25T12:06:06;29.20;;;10.60;;
65658;SDS011;60181;53.258;6.932;2023-04-25T12:10:11;34.90;;;12.40;;
65658;SDS011;60181;53.258;6.932;2023-04-25T12:14:20;34.90;;;12.40;;
65658;SDS011;60181;53.258;6.932;2023-04-25T12:18:22;41.20;;;13.20;;
65658;SDS011;60181;53.258;6.932;2023-04-25T12:22:23;41.20;;;13.20;;
65658;SDS011;60181;53.258;6.932;2023-04-25T12:26:26;41.20;;;13.20;;
65658;SDS011;60181;53.258;6.932;2023-04-25T12:30:30;44.20;;;12.50;;
65658;SDS011;60181;53.258;6.932;2023-04-25T12:34:34;44.20;;;12.50;;
65658;SDS011;60181;53.258;6.932;2023-04-25T12:38:39;40.40;;;13.60;;
65658;SDS011;60181;53.258;6.932;2023-04-25T12:42:42;40.40;;;13.60;;
65658;SDS011;60181;53.258;6.932;2023-04-25T12:46:46;40.40;;;13.60;;
65658;SDS011;60181;53.258;6.932;2023-04-25T12:50:50;48.70;;;14.40;;
65658;SDS011;60181;53.258;6.932;2023-04-25T12:54:54;48.70;;;14.40;;
65658;SDS011;60181;53.258;6.932;2023-04-25T12:58:58;46.90;;;15.30;;
65658;SDS011;60181;53.258;6.932;2023-04-25T13:03:02;46.90;;;15.30;;
65658;SDS011;60181;53.258;6.932;2023-04-25T13:07:06;46.90;;;16.00;;
65658;SDS011;60181;53.258;6.932;2023-04-25T13:11:10;46.90;;;16.00;;
65658;SDS011;60181;53.258;6.932;2023-04-25T13:15:14;46.90;;;16.00;;
65658;SDS011;60181;53.258;6.932;2023-04-25T13:19:18;120.50;;;37.20;;
65658;SDS011;60181;53.258;6.932;2023-04-25T13:23:22;120.50;;;37.20;;
65658;SDS011;60181;53.258;6.932;2023-04-25T13:27:26;89.30;;;28.90;;
65658;SDS011;60181;53.258;6.932;2023-04-25T13:31:30;89.30;;;28.90;;
65658;SDS011;60181;53.258;6.932;2023-04-25T13:35:34;89.30;;;28.90;;
65658;SDS011;60181;53.258;6.932;2023-04-25T13:39:38;83.60;;;27.10;;
65658;SDS011;60181;53.258;6.932;2023-04-25T13:43:42;83.60;;;27.10;;
65658;SDS011;60181;53.258;6.932;2023-04-25T13:47:46;83.10;;;26.30;;
65658;SDS011;60181;53.258;6.932;2023-04-25T13:51:50;83.10;;;26.30;;
65658;SDS011;60181;53.258;6.932;2023-04-25T13:55:54;83.10;;;26.30;;
65658;SDS011;60181;53.258;6.932;2023-04-25T13:59:58;76.10;;;24.60;;
65658;SDS011;60181;53.258;6.932;2023-04-25T14:04:02;76.10;;;24.60;;
65658;SDS011;60181;53.258;6.932;2023-04-25T14:08:06;69.90;;;22.80;;
65658;SDS011;60181;53.258;6.932;2023-04-25T14:12:10;69.90;;;22.80;;
65658;SDS011;60181;53.258;6.932;2023-04-25T14:16:14;69.90;;;22.80;;
65658;SDS011;60181;53.258;6.932;2023-04-25T14:20:18;65.20;;;20.80;;
65658;SDS011;60181;53.258;6.932;2023-04-25T14:24:22;65.20;;;20.80;;
65658;SDS011;60181;53.258;6.932;2023-04-25T14:28:26;56.40;;;18.90;;
65658;SDS011;60181;53.258;6.932;2023-04-25T14:32:30;56.40;;;18.90;;
65658;SDS011;60181;53.258;6.932;2023-04-25T14:36:35;56.40;;;18.90;;
65658;SDS011;60181;53.258;6.932;2023-04-25T14:40:38;52.10;;;17.90;;
65658;SDS011;60181;53.258;6.932;2023-04-25T14:44:42;52.10;;;17.90;;
65658;SDS011;60181;53.258;6.932;2023-04-25T14:48:46;52.00;;;17.40;;
65658;SDS011;60181;53.258;6.932;2023-04-25T14:52:50;52.00;;;17.40;;
65658;SDS011;60181;53.258;6.932;2023-04-25T14:56:54;52.00;;;17.40;;
65658;SDS011;60181;53.258;6.932;2023-04-25T15:00:58;46.50;;;15.30;;
65658;SDS011;60181;53.258;6.932;2023-04-25T15:05:02;46.50;;;15.30;;
65658;SDS011;60181;53.258;6.932;2023-04-25T15:09:06;42.20;;;15.00;;
65658;SDS011;60181;53.258;6.932;2023-04-25T15:13:10;42.20;;;15.00;;
65658;SDS011;60181;53.258;6.932;2023-04-25T15:17:14;41.50;;;14.70;;
65658;SDS011;60181;53.258;6.932;2023-04-25T15:21:18;41.50;;;14.70;;
65658;SDS011;60181;53.258;6.932;2023-04-25T15:25:22;41.50;;;14.70;;
65658;SDS011;60181;53.258;6.932;2023-04-25T15:29:26;43.20;;;14.80;;
65658;SDS011;60181;53.258;6.932;2023-04-25T15:33:30;43.20;;;14.80;;
65658;SDS011;60181;53.258;6.932;2023-04-25T15:37:34;38.40;;;14.20;;
65658;SDS011;60181;53.258;6.932;2023-04-25T15:41:38;38.40;;;14.20;;
65658;SDS011;60181;53.258;6.932;2023-04-25T15:45:42;38.40;;;14.20;;
65658;SDS011;60181;53.258;6.932;2023-04-25T15:49:46;39.10;;;14.20;;
65658;SDS011;60181;53.258;6.932;2023-04-25T15:53:50;39.10;;;14.20;;
65658;SDS011;60181;53.258;6.932;2023-04-25T15:57:54;41.00;;;13.90;;
65658;SDS011;60181;53.258;6.932;2023-04-25T16:01:58;41.00;;;13.90;;
65658;SDS011;60181;53.258;6.932;2023-04-25T16:06:02;41.00;;;13.90;;
65658;SDS011;60181;53.258;6.932;2023-04-25T16:10:06;41.20;;;13.90;;
65658;SDS011;60181;53.258;6.932;2023-04-25T16:14:10;41.20;;;13.90;;
65658;SDS011;60181;53.258;6.932;2023-04-25T16:18:14;36.70;;;13.40;;
65658;SDS011;60181;53.258;6.932;2023-04-25T16:22:18;36.70;;;13.40;;
65658;SDS011;60181;53.258;6.932;2023-04-25T16:26:22;36.70;;;13.40;;
65658;SDS011;60181;53.258;6.932;2023-04-25T16:30:25;33.20;;;12.40;;
65658;SDS011;60181;53.258;6.932;2023-04-25T16:34:30;33.20;;;12.40;;
65658;SDS011;60181;53.258;6.932;2023-04-25T16:38:33;34.20;;;12.30;;
65658;SDS011;60181;53.258;6.932;2023-04-25T16:42:37;34.20;;;12.30;;
65658;SDS011;60181;53.258;6.932;2023-04-25T16:46:41;34.20;;;12.30;;
65658;SDS011;60181;53.258;6.932;2023-04-25T16:50:45;33.30;;;11.90;;
65658;SDS011;60181;53.258;6.932;2023-04-25T16:54:49;33.30;;;11.90;;
65658;SDS011;60181;53.258;6.932;2023-04-25T16:58:53;33.40;;;11.90;;
65658;SDS011;60181;53.258;6.932;2023-04-25T17:02:57;33.40;;;11.90;;
65658;SDS011;60181;53.258;6.932;2023-04-25T17:07:04;30.00;;;11.40;;
65658;SDS011;60181;53.258;6.932;2023-04-25T17:11:06;30.00;;;11.40;;
65658;SDS011;60181;53.258;6.932;2023-04-25T17:15:10;30.00;;;11.40;;
65658;SDS011;60181;53.258;6.932;2023-04-25T17:19:13;32.40;;;11.30;;
65658;SDS011;60181;53.258;6.932;2023-04-25T17:23:17;32.40;;;11.30;;
65658;SDS011;60181;53.258;6.932;2023-04-25T17:27:21;30.80;;;10.80;;
65658;SDS011;60181;53.258;6.932;2023-04-25T17:31:25;30.80;;;10.80;;
65658;SDS011;60181;53.258;6.932;2023-04-25T17:35:29;30.80;;;10.80;;
65658;SDS011;60181;53.258;6.932;2023-04-25T17:39:33;26.30;;;10.10;;
65658;SDS011;60181;53.258;6.932;2023-04-25T17:43:37;26.30;;;10.10;;
65658;SDS011;60181;53.258;6.932;2023-04-25T17:47:41;28.00;;;10.00;;
65658;SDS011;60181;53.258;6.932;2023-04-25T17:51:45;28.00;;;10.00;;
65658;SDS011;60181;53.258;6.932;2023-04-25T17:55:49;28.00;;;10.00;;
65658;SDS011;60181;53.258;6.932;2023-04-25T17:59:53;28.90;;;10.00;;
65658;SDS011;60181;53.258;6.932;2023-04-25T18:03:57;28.90;;;10.00;;
65658;SDS011;60181;53.258;6.932;2023-04-25T18:08:01;23.80;;;9.60;;
65658;SDS011;60181;53.258;6.932;2023-04-25T18:12:06;23.80;;;9.60;;
65658;SDS011;60181;53.258;6.932;2023-04-25T18:16:09;23.80;;;9.60;;
65658;SDS011;60181;53.258;6.932;2023-04-25T18:20:14;26.10;;;9.40;;
65658;SDS011;60181;53.258;6.932;2023-04-25T18:24:17;26.10;;;9.40;;
65658;SDS011;60181;53.258;6.932;2023-04-25T18:28:21;27.00;;;9.40;;
65658;SDS011;60181;53.258;6.932;2023-04-25T18:32:25;27.00;;;9.40;;
65658;SDS011;60181;53.258;6.932;2023-04-25T18:36:29;27.00;;;9.40;;
65658;SDS011;60181;53.258;6.932;2023-04-25T18:40:33;25.50;;;9.40;;
65658;SDS011;60181;53.258;6.932;2023-04-25T18:44:37;25.50;;;9.40;;
65658;SDS011;60181;53.258;6.932;2023-04-25T18:48:41;24.80;;;8.70;;
65658;SDS011;60181;53.258;6.932;2023-04-25T18:52:45;24.80;;;8.70;;
65658;SDS011;60181;53.258;6.932;2023-04-25T18:56:49;24.80;;;8.70;;
65658;SDS011;60181;53.258;6.932;2023-04-25T19:00:53;22.30;;;8.30;;
65658;SDS011;60181;53.258;6.932;2023-04-25T19:04:57;22.30;;;8.30;;
65658;SDS011;60181;53.258;6.932;2023-04-25T19:09:01;20.60;;;8.30;;
65658;SDS011;60181;53.258;6.932;2023-04-25T19:13:05;20.60;;;8.30;;
65658;SDS011;60181;53.258;6.932;2023-04-25T19:17:09;19.80;;;8.10;;
65658;SDS011;60181;53.258;6.932;2023-04-25T19:21:13;19.80;;;8.10;;
65658;SDS011;60181;53.258;6.932;2023-04-25T19:25:17;19.80;;;8.10;;
65658;SDS011;60181;53.258;6.932;2023-04-25T19:29:21;19.10;;;7.80;;
65658;SDS011;60181;53.258;6.932;2023-04-25T19:33:25;19.10;;;7.80;;
65658;SDS011;60181;53.258;6.932;2023-04-25T19:37:29;19.10;;;7.70;;
65658;SDS011;60181;53.258;6.932;2023-04-25T19:41:34;19.10;;;7.70;;
65658;SDS011;60181;53.258;6.932;2023-04-25T19:45:37;19.10;;;7.70;;
65658;SDS011;60181;53.258;6.932;2023-04-25T19:49:41;18.40;;;7.40;;
65658;SDS011;60181;53.258;6.932;2023-04-25T19:53:45;18.40;;;7.40;;
65658;SDS011;60181;53.258;6.932;2023-04-25T19:57:49;18.80;;;7.40;;
65658;SDS011;60181;53.258;6.932;2023-04-25T20:01:53;18.80;;;7.40;;
65658;SDS011;60181;53.258;6.932;2023-04-25T20:05:57;18.80;;;7.40;;
65658;SDS011;60181;53.258;6.932;2023-04-25T20:10:03;16.90;;;6.60;;
65658;SDS011;60181;53.258;6.932;2023-04-25T20:14:05;16.90;;;6.60;;
65658;SDS011;60181;53.258;6.932;2023-04-25T20:18:09;14.70;;;5.90;;
65658;SDS011;60181;53.258;6.932;2023-04-25T20:22:13;14.70;;;5.90;;
65658;SDS011;60181;53.258;6.932;2023-04-25T20:26:17;14.70;;;5.90;;
65658;SDS011;60181;53.258;6.932;2023-04-25T20:30:21;15.60;;;5.40;;
65658;SDS011;60181;53.258;6.932;2023-04-25T20:34:25;15.60;;;5.40;;
65658;SDS011;60181;53.258;6.932;2023-04-25T20:38:29;15.00;;;5.50;;
65658;SDS011;60181;53.258;6.932;2023-04-25T20:42:33;15.00;;;5.50;;
65658;SDS011;60181;53.258;6.932;2023-04-25T20:46:37;15.00;;;5.50;;
65658;SDS011;60181;53.258;6.932;2023-04-25T20:50:41;14.00;;;5.30;;
65658;SDS011;60181;53.258;6.932;2023-04-25T20:54:45;14.00;;;5.30;;
65658;SDS011;60181;53.258;6.932;2023-04-25T20:58:50;13.60;;;5.20;;
65658;SDS011;60181;53.258;6.932;2023-04-25T21:02:54;13.60;;;5.20;;
65658;SDS011;60181;53.258;6.932;2023-04-25T21:06:57;13.60;;;5.20;;
65658;SDS011;60181;53.258;6.932;2023-04-25T21:11:01;16.90;;;5.10;;
65658;SDS011;60181;53.258;6.932;2023-04-25T21:15:05;16.90;;;5.10;;
65658;SDS011;60181;53.258;6.932;2023-04-25T21:19:09;19.30;;;4.90;;
65658;SDS011;60181;53.258;6.932;2023-04-25T21:23:13;19.30;;;4.90;;
65658;SDS011;60181;53.258;6.932;2023-04-25T21:27:17;18.70;;;4.90;;
65658;SDS011;60181;53.258;6.932;2023-04-25T21:31:21;18.70;;;4.90;;
65658;SDS011;60181;53.258;6.932;2023-04-25T21:35:25;18.70;;;4.90;;
65658;SDS011;60181;53.258;6.932;2023-04-25T21:39:29;13.10;;;5.00;;
65658;SDS011;60181;53.258;6.932;2023-04-25T21:43:33;13.10;;;5.00;;
65658;SDS011;60181;53.258;6.932;2023-04-25T21:47:37;11.60;;;4.50;;
65658;SDS011;60181;53.258;6.932;2023-04-25T21:51:41;11.60;;;4.50;;
65658;SDS011;60181;53.258;6.932;2023-04-25T21:55:45;11.60;;;4.50;;
65658;SDS011;60181;53.258;6.932;2023-04-25T21:59:49;12.70;;;4.60;;
65658;SDS011;60181;53.258;6.932;2023-04-25T22:03:53;12.70;;;4.60;;
65658;SDS011;60181;53.258;6.932;2023-04-25T22:07:57;11.20;;;4.50;;
65658;SDS011;60181;53.258;6.932;2023-04-25T22:12:01;11.20;;;4.50;;
65658;SDS011;60181;53.258;6.932;2023-04-25T22:16:05;11.20;;;4.50;;
65658;SDS011;60181;53.258;6.932;2023-04-25T22:20:09;10.50;;;4.40;;
65658;SDS011;60181;53.258;6.932;2023-04-25T22:24:13;10.50;;;4.40;;
65658;SDS011;60181;53.258;6.932;2023-04-25T22:28:17;10.20;;;4.20;;
65658;SDS011;60181;53.258;6.932;2023-04-25T22:32:21;10.20;;;4.20;;
65658;SDS011;60181;53.258;6.932;2023-04-25T22:36:25;10.20;;;4.20;;
65658;SDS011;60181;53.258;6.932;2023-04-25T22:40:29;11.70;;;4.30;;
65658;SDS011;60181;53.258;6.932;2023-04-25T22:44:33;11.70;;;4.30;;
65658;SDS011;60181;53.258;6.932;2023-04-25T22:48:37;9.60;;;3.70;;
65658;SDS011;60181;53.258;6.932;2023-04-25T22:52:41;9.60;;;3.70;;
65658;SDS011;60181;53.258;6.932;2023-04-25T22:56:45;9.60;;;3.70;;
65658;SDS011;60181;53.258;6.932;2023-04-25T23:00:49;9.10;;;4.00;;
65658;SDS011;60181;53.258;6.932;2023-04-25T23:04:53;9.10;;;4.00;;
65658;SDS011;60181;53.258;6.932;2023-04-25T23:08:57;8.30;;;4.10;;
65658;SDS011;60181;53.258;6.932;2023-04-25T23:13:01;8.30;;;4.10;;
65658;SDS011;60181;53.258;6.932;2023-04-25T23:17:05;11.70;;;3.90;;
65658;SDS011;60181;53.258;6.932;2023-04-25T23:21:09;11.70;;;3.90;;
65658;SDS011;60181;53.258;6.932;2023-04-25T23:25:13;11.70;;;3.90;;
65658;SDS011;60181;53.258;6.932;2023-04-25T23:29:17;8.80;;;3.90;;
65658;SDS011;60181;53.258;6.932;2023-04-25T23:33:21;8.80;;;3.90;;
65658;SDS011;60181;53.258;6.932;2023-04-25T23:37:25;10.40;;;3.60;;
65658;SDS011;60181;53.258;6.932;2023-04-25T23:41:29;10.40;;;3.60;;
65658;SDS011;60181;53.258;6.932;2023-04-25T23:45:33;10.40;;;3.60;;
65658;SDS011;60181;53.258;6.932;2023-04-25T23:49:37;8.70;;;3.70;;
65658;SDS011;60181;53.258;6.932;2023-04-25T23:53:41;8.70;;;3.70;;
65658;SDS011;60181;53.258;6.932;2023-04-25T23:57:45;12.40;;;3.80;;
